createdAt,value
2022-08-10T00:00:54.461Z,64.65
2022-08-10T00:01:54.658Z,65.19
2022-08-10T00:02:54.386Z,65.16
2022-08-10T00:03:54.352Z,64.95
2022-08-10T00:04:54.331Z,65.19
2022-08-10T00:05:54.291Z,65.36
2022-08-10T00:06:54.285Z,65.55
2022-08-10T00:07:54.205Z,65.16
2022-08-10T00:08:54.170Z,65.16
2022-08-10T00:09:54.134Z,65.39
2022-08-10T00:10:54.097Z,65.28
2022-08-10T00:11:54.072Z,65.16
2022-08-10T00:12:55.238Z,65.25
2022-08-10T00:13:53.987Z,65.28
2022-08-10T00:14:53.955Z,65.16
2022-08-10T00:15:55.355Z,65.45
2022-08-10T00:16:53.885Z,65.16
2022-08-10T00:17:53.851Z,65.39
2022-08-10T00:18:53.808Z,65.16
2022-08-10T00:20:03.137Z,65.28
2022-08-10T00:20:53.736Z,65.19
2022-08-10T00:21:53.699Z,64.78
2022-08-10T00:22:57.802Z,65.36
2022-08-10T00:23:53.633Z,65.25
2022-08-10T00:24:53.620Z,65.78
2022-08-10T00:25:53.551Z,64.65
2022-08-10T00:27:58.542Z,65.99
2022-08-10T00:28:03.632Z,65.69
2022-08-10T00:28:53.457Z,66.19
2022-08-10T00:29:53.433Z,65.69
2022-08-10T00:30:53.396Z,66.12
2022-08-10T00:31:57.955Z,66.12
2022-08-10T00:32:53.299Z,66.12
2022-08-10T00:33:53.264Z,65.82
2022-08-10T00:34:53.239Z,65.82
2022-08-10T00:35:53.209Z,65.92
2022-08-10T00:36:53.161Z,66.22
2022-08-10T00:37:56.422Z,67.52
2022-08-10T00:38:53.084Z,66.92
2022-08-10T00:39:53.098Z,67.15
2022-08-10T00:40:53.021Z,67.02
2022-08-10T00:42:02.289Z,67.15
2022-08-10T00:42:52.938Z,66.82
2022-08-10T00:43:52.899Z,67.32
2022-08-10T00:44:52.864Z,66.82
2022-08-10T00:45:59.530Z,68.35
2022-08-10T00:46:52.803Z,67.12
2022-08-10T00:47:52.757Z,68.15
2022-08-10T00:49:00.739Z,67.55
2022-08-10T00:49:52.683Z,67.96
2022-08-10T00:50:52.646Z,68.46
2022-08-10T00:51:52.615Z,68.59
2022-08-10T00:52:52.576Z,68.59
2022-08-10T00:53:52.538Z,68.49
2022-08-10T00:54:52.508Z,68.69
2022-08-10T00:56:35.234Z,68.39
2022-08-10T00:57:18.029Z,68.49
2022-08-10T00:57:54.803Z,68.69
2022-08-10T00:58:52.354Z,68.08
2022-08-10T00:59:57.649Z,68.46
2022-08-10T01:00:52.291Z,68.46
2022-08-10T01:02:08.540Z,68.15
2022-08-10T01:02:52.406Z,68.65
2022-08-10T01:04:36.485Z,67.96
2022-08-10T01:05:00.341Z,68.05
2022-08-10T01:05:52.101Z,68.65
2022-08-10T01:06:52.077Z,68.69
2022-08-10T01:07:52.031Z,68.79
2022-08-10T01:08:51.988Z,69.19
2022-08-10T01:09:57.224Z,68.59
2022-08-10T01:10:51.922Z,68.89
2022-08-10T01:12:39.701Z,68.59
2022-08-10T01:12:52.284Z,68.32
2022-08-10T01:13:51.817Z,69.19
2022-08-10T01:14:51.774Z,69.32
2022-08-10T01:15:51.736Z,69.09
2022-08-10T01:16:51.698Z,69.02
2022-08-10T01:17:51.715Z,70.03
2022-08-10T01:18:51.624Z,69.12
2022-08-10T01:19:51.604Z,69.42
2022-08-10T01:20:51.554Z,69.92
2022-08-10T01:21:57.044Z,69.62
2022-08-10T01:22:51.479Z,68.72
2022-08-10T01:23:51.442Z,69.12
2022-08-10T01:24:51.420Z,68.92
2022-08-10T01:26:11.839Z,69.62
2022-08-10T01:26:51.336Z,69.82
2022-08-10T01:27:51.305Z,70.12
2022-08-10T01:28:51.264Z,69.12
2022-08-10T01:29:51.232Z,70.53
2022-08-10T01:30:51.215Z,69.62
2022-08-10T01:31:51.150Z,70.63
2022-08-10T01:32:51.115Z,70.53
2022-08-10T01:33:58.068Z,69.73
2022-08-10T01:34:51.047Z,70.36
2022-08-10T01:35:51.004Z,70.43
2022-08-10T01:36:50.982Z,71.16
2022-08-10T01:37:51.870Z,70.46
2022-08-10T01:38:50.892Z,70.46
2022-08-10T01:39:50.914Z,70.46
2022-08-10T01:40:50.827Z,69.85
2022-08-10T01:41:50.799Z,70.96
2022-08-10T01:42:50.748Z,70.66
2022-08-10T01:43:50.711Z,71.20
2022-08-10T01:44:50.675Z,70.76
2022-08-10T01:45:50.644Z,70.66
2022-08-10T01:46:53.028Z,71.30
2022-08-10T01:47:50.580Z,70.36
2022-08-10T01:48:50.529Z,72.00
2022-08-10T01:49:50.497Z,70.79
2022-08-10T01:50:58.908Z,71.80
2022-08-10T01:51:50.423Z,70.86
2022-08-10T01:52:50.407Z,71.80
2022-08-10T01:53:50.352Z,70.70
2022-08-10T01:54:50.308Z,71.00
2022-08-10T01:55:50.271Z,71.36
2022-08-10T01:56:50.236Z,71.26
2022-08-10T01:57:50.202Z,71.70
2022-08-10T01:58:50.171Z,71.20
2022-08-10T01:59:58.603Z,72.80
2022-08-10T02:00:50.153Z,72.60
2022-08-10T02:01:50.051Z,71.53
2022-08-10T02:02:50.013Z,71.53
2022-08-10T02:04:03.786Z,71.43
2022-08-10T02:04:49.958Z,71.90
2022-08-10T02:05:49.906Z,71.83
2022-08-10T02:06:49.870Z,72.30
2022-08-10T02:07:49.831Z,72.13
2022-08-10T02:08:49.794Z,72.30
2022-08-10T02:09:49.756Z,71.63
2022-08-10T02:10:49.730Z,72.24
2022-08-10T02:12:05.454Z,72.84
2022-08-10T02:12:49.647Z,73.14
2022-08-10T02:13:49.611Z,73.14
2022-08-10T02:14:49.579Z,72.94
2022-08-10T02:16:01.940Z,74.24
2022-08-10T02:16:49.507Z,74.38
2022-08-10T02:17:59.259Z,75.18
2022-08-10T02:18:49.425Z,74.48
2022-08-10T02:19:49.390Z,74.48
2022-08-10T02:20:49.361Z,75.72
2022-08-10T02:22:36.770Z,75.32
2022-08-10T02:22:49.491Z,74.62
2022-08-10T02:23:59.356Z,75.82
2022-08-10T02:24:49.206Z,75.62
2022-08-10T02:25:49.169Z,75.66
2022-08-10T02:26:49.130Z,75.66
2022-08-10T02:27:49.102Z,77.27
2022-08-10T02:28:49.082Z,77.47
2022-08-10T02:29:49.331Z,78.78
2022-08-10T02:30:48.985Z,78.41
2022-08-10T02:31:49.560Z,77.91
2022-08-10T02:32:52.945Z,78.71
2022-08-10T02:33:57.828Z,78.41
2022-08-10T02:34:48.852Z,78.65
2022-08-10T02:35:55.485Z,78.45
2022-08-10T02:36:48.766Z,78.65
2022-08-10T02:37:58.165Z,79.25
2022-08-10T02:38:58.326Z,80.80
2022-08-10T02:39:48.654Z,80.40
2022-08-10T02:42:17.991Z,80.54
2022-08-10T02:42:18.118Z,80.54
2022-08-10T02:45:19.854Z,81.85
2022-08-10T02:45:24.327Z,81.24
2022-08-10T02:45:27.428Z,81.15
2022-08-10T02:45:48.430Z,83.20
2022-08-10T02:46:48.418Z,82.09
2022-08-10T02:47:52.282Z,83.50
2022-08-10T02:48:48.320Z,81.59
2022-08-10T02:49:48.282Z,82.59
2022-08-10T02:50:48.243Z,83.00
2022-08-10T02:52:06.781Z,83.00
2022-08-10T02:52:48.179Z,83.44
2022-08-10T02:53:54.460Z,83.74
2022-08-10T02:54:48.095Z,83.34
2022-08-10T02:55:48.058Z,84.05
2022-08-10T02:56:48.018Z,85.05
2022-08-10T02:58:16.720Z,84.69
2022-08-10T02:58:47.955Z,85.70
2022-08-10T02:59:47.908Z,84.89
2022-08-10T03:00:47.944Z,85.19
2022-08-10T03:01:47.836Z,85.70
2022-08-10T03:02:47.796Z,85.74
2022-08-10T03:03:47.763Z,85.10
2022-08-10T03:04:56.097Z,85.14
2022-08-10T03:05:47.688Z,86.15
2022-08-10T03:06:47.645Z,85.74
2022-08-10T03:07:47.607Z,85.34
2022-08-10T03:08:47.572Z,85.14
2022-08-10T03:09:47.547Z,85.74
2022-08-10T03:10:47.580Z,85.64
2022-08-10T03:12:36.209Z,85.24
2022-08-10T03:12:47.604Z,84.83
2022-08-10T03:13:52.454Z,84.63
2022-08-10T03:14:47.348Z,86.04
2022-08-10T03:15:47.309Z,86.55
2022-08-10T03:16:47.288Z,86.15
2022-08-10T03:17:57.579Z,86.45
2022-08-10T03:18:47.196Z,85.64
2022-08-10T03:20:33.702Z,86.95
2022-08-10T03:20:47.121Z,86.59
2022-08-10T03:21:47.083Z,87.19
2022-08-10T03:22:47.058Z,87.10
2022-08-10T03:23:47.007Z,87.10
2022-08-10T03:24:46.984Z,87.40
2022-08-10T03:25:53.898Z,86.99
2022-08-10T03:26:46.894Z,87.30
2022-08-10T03:27:46.861Z,86.90
2022-08-10T03:28:46.856Z,86.59
2022-08-10T03:30:29.697Z,87.04
2022-08-10T03:30:46.744Z,87.10
2022-08-10T03:31:46.707Z,88.41
2022-08-10T03:32:46.680Z,87.13
2022-08-10T03:33:46.641Z,88.04
2022-08-10T03:34:46.594Z,88.65
2022-08-10T03:36:43.118Z,88.75
2022-08-10T03:36:46.517Z,88.55
2022-08-10T03:37:46.481Z,85.93
2022-08-10T03:38:46.444Z,87.74
2022-08-10T03:39:46.494Z,87.64
2022-08-10T03:40:46.820Z,87.44
2022-08-10T03:41:47.777Z,88.15
2022-08-10T03:42:46.289Z,88.45
2022-08-10T03:43:46.257Z,88.15
2022-08-10T03:44:50.252Z,88.35
2022-08-10T03:45:55.676Z,88.79
2022-08-10T03:46:46.139Z,88.85
2022-08-10T03:47:46.102Z,89.76
2022-08-10T03:48:49.608Z,88.70
2022-08-10T03:49:46.027Z,89.46
2022-08-10T03:50:51.903Z,89.46
2022-08-10T03:51:45.959Z,88.04
2022-08-10T03:52:45.912Z,89.30
2022-08-10T03:54:04.974Z,89.50
2022-08-10T03:54:45.837Z,89.70
2022-08-10T03:56:29.414Z,89.00
2022-08-10T03:56:45.771Z,89.81
2022-08-10T03:57:49.579Z,89.95
2022-08-10T03:58:45.683Z,90.21
2022-08-10T03:59:45.651Z,90.05
2022-08-10T04:00:45.626Z,90.05
2022-08-10T04:02:45.312Z,90.45
2022-08-10T04:02:48.385Z,90.45
2022-08-10T04:03:45.497Z,91.06
2022-08-10T04:04:45.457Z,91.06
2022-08-10T04:05:45.420Z,91.27
2022-08-10T04:06:45.396Z,90.76
2022-08-10T04:07:45.345Z,91.27
2022-08-10T04:08:45.306Z,91.16
2022-08-10T04:09:55.731Z,90.91
2022-08-10T04:10:45.230Z,91.00
2022-08-10T04:11:45.191Z,91.47
2022-08-10T04:12:45.163Z,91.06
2022-08-10T04:13:45.115Z,91.06
2022-08-10T04:14:49.329Z,91.47
2022-08-10T04:15:45.040Z,90.86
2022-08-10T04:16:44.999Z,91.37
2022-08-10T04:17:57.081Z,91.57
2022-08-10T04:18:44.940Z,91.61
2022-08-10T04:19:44.892Z,91.51
2022-08-10T04:20:44.854Z,91.61
2022-08-10T04:21:44.811Z,92.22
2022-08-10T04:22:44.798Z,91.51
2022-08-10T04:23:44.734Z,91.82
2022-08-10T04:24:44.706Z,91.51
2022-08-10T04:25:44.658Z,91.92
2022-08-10T04:26:44.621Z,92.02
2022-08-10T04:27:44.585Z,91.31
2022-08-10T04:28:44.545Z,91.41
2022-08-10T04:29:44.507Z,91.51
2022-08-10T04:30:44.483Z,91.41
2022-08-10T04:31:44.434Z,91.87
2022-08-10T04:32:44.392Z,91.51
2022-08-10T04:33:44.356Z,91.37
2022-08-10T04:34:44.324Z,91.87
2022-08-10T04:35:44.278Z,92.28
2022-08-10T04:36:44.250Z,92.28
2022-08-10T04:37:47.615Z,91.73
2022-08-10T04:38:44.177Z,91.78
2022-08-10T04:39:44.211Z,91.38
2022-08-10T04:40:44.089Z,91.69
2022-08-10T04:41:47.302Z,90.27
2022-08-10T04:42:44.012Z,89.01
2022-08-10T04:43:44.004Z,88.31
2022-08-10T04:44:43.940Z,89.01
2022-08-10T04:45:49.518Z,88.51
2022-08-10T04:46:57.895Z,88.61
2022-08-10T04:48:00.636Z,88.92
2022-08-10T04:49:01.249Z,89.52
2022-08-10T04:49:55.135Z,88.41
2022-08-10T04:50:43.709Z,89.48
2022-08-10T04:51:43.671Z,88.61
2022-08-10T04:52:43.636Z,88.01
2022-08-10T04:54:05.494Z,89.72
2022-08-10T04:54:43.559Z,89.62
2022-08-10T04:55:43.535Z,89.52
2022-08-10T04:56:43.492Z,88.06
2022-08-10T04:57:43.444Z,88.06
2022-08-10T04:58:43.407Z,87.66
2022-08-10T04:59:43.370Z,88.17
2022-08-10T05:00:43.395Z,88.77
2022-08-10T05:02:22.170Z,87.86
2022-08-10T05:02:43.405Z,87.46
2022-08-10T05:04:34.659Z,88.63
2022-08-10T05:04:43.192Z,87.46
2022-08-10T05:05:43.141Z,88.26
2022-08-10T05:06:43.104Z,89.07
2022-08-10T05:07:51.463Z,88.87
2022-08-10T05:08:43.039Z,89.13
2022-08-10T05:10:04.835Z,88.32
2022-08-10T05:10:42.953Z,88.08
2022-08-10T05:11:42.915Z,87.23
2022-08-10T05:12:42.878Z,85.54
2022-08-10T05:13:42.851Z,82.80
2022-08-10T05:14:42.802Z,79.97
2022-08-10T05:15:42.766Z,78.35
2022-08-10T05:16:42.732Z,76.57
2022-08-10T05:18:03.237Z,74.84
2022-08-10T05:18:42.655Z,72.66
2022-08-10T05:20:04.361Z,72.19
2022-08-10T05:20:42.590Z,69.56
2022-08-10T05:22:03.396Z,69.26
2022-08-10T05:22:42.505Z,67.63
2022-08-10T05:23:42.469Z,67.43
2022-08-10T05:24:42.438Z,67.03
2022-08-10T05:25:42.403Z,66.24
2022-08-10T05:27:00.466Z,66.00
2022-08-10T05:27:42.334Z,64.87
2022-08-10T05:28:42.288Z,64.37
2022-08-10T05:29:42.250Z,64.61
2022-08-10T05:30:42.216Z,65.50
2022-08-10T05:31:42.181Z,65.77
2022-08-10T05:32:58.176Z,67.07
2022-08-10T05:33:42.273Z,67.66
2022-08-10T05:34:42.071Z,67.07
2022-08-10T05:35:56.235Z,65.41
2022-08-10T05:36:42.003Z,65.61
2022-08-10T05:38:09.951Z,64.75
2022-08-10T05:38:41.930Z,63.12
2022-08-10T05:39:41.961Z,63.89
2022-08-10T05:40:46.101Z,61.64
2022-08-10T05:41:46.049Z,60.69
2022-08-10T05:42:41.796Z,60.26
2022-08-10T05:43:41.753Z,58.94
2022-08-10T05:44:41.719Z,59.23
2022-08-10T05:46:19.210Z,58.39
2022-08-10T05:46:41.663Z,57.57
2022-08-10T05:48:57.047Z,58.29
2022-08-10T05:48:57.176Z,57.57
2022-08-10T05:49:41.547Z,57.97
2022-08-10T05:50:41.514Z,57.21
2022-08-10T05:51:41.489Z,57.02
2022-08-10T05:52:41.443Z,57.64
2022-08-10T05:54:02.336Z,57.46
2022-08-10T05:54:41.376Z,56.65
2022-08-10T05:55:41.344Z,55.93
2022-08-10T05:56:56.746Z,54.98
2022-08-10T05:57:41.282Z,55.30
2022-08-10T05:58:41.255Z,56.02
2022-08-10T06:00:12.613Z,56.74
2022-08-10T06:00:49.717Z,56.92
2022-08-10T06:01:41.232Z,56.10
2022-08-10T06:02:41.441Z,56.69
2022-08-10T06:03:41.071Z,57.02
2022-08-10T06:04:41.039Z,56.74
2022-08-10T06:05:41.006Z,57.31
2022-08-10T06:06:40.974Z,56.00
2022-08-10T06:07:40.988Z,56.07
2022-08-10T06:08:40.905Z,56.07
2022-08-10T06:09:58.943Z,55.68
2022-08-10T06:10:50.858Z,54.59
2022-08-10T06:12:26.488Z,54.17
2022-08-10T06:12:54.036Z,55.77
2022-08-10T06:14:13.186Z,57.61
2022-08-10T06:14:40.709Z,57.41
2022-08-10T06:15:50.855Z,57.12
2022-08-10T06:16:40.640Z,56.99
2022-08-10T06:17:40.611Z,56.02
2022-08-10T06:18:40.586Z,56.57
2022-08-10T06:19:40.539Z,56.24
2022-08-10T06:20:40.507Z,55.15
2022-08-10T06:21:40.474Z,55.72
2022-08-10T06:22:40.464Z,54.83
2022-08-10T06:23:40.410Z,55.03
2022-08-10T06:24:51.165Z,53.81
2022-08-10T06:26:09.821Z,52.80
2022-08-10T06:26:40.310Z,52.95
2022-08-10T06:27:40.280Z,52.85
2022-08-10T06:28:40.257Z,52.04
2022-08-10T06:29:40.208Z,52.73
2022-08-10T06:30:40.186Z,52.70
2022-08-10T06:31:49.008Z,51.97
2022-08-10T06:32:40.116Z,51.47
2022-08-10T06:33:40.085Z,52.55
2022-08-10T06:34:40.063Z,51.47
2022-08-10T06:35:40.025Z,50.88
2022-08-10T06:36:39.984Z,50.26
2022-08-10T06:37:39.951Z,50.49
2022-08-10T06:38:39.919Z,50.61
2022-08-10T06:39:39.958Z,52.09
2022-08-10T06:40:39.869Z,51.99
2022-08-10T06:42:14.377Z,51.20
2022-08-10T06:42:39.789Z,51.37
2022-08-10T06:43:39.756Z,53.07
2022-08-10T06:44:39.728Z,50.46
2022-08-10T06:45:39.690Z,50.42
2022-08-10T06:46:40.823Z,51.30
2022-08-10T06:47:39.626Z,50.61
2022-08-10T06:48:39.604Z,49.99
2022-08-10T06:49:39.561Z,50.12
2022-08-10T06:50:56.193Z,50.51
2022-08-10T06:51:39.497Z,51.72
2022-08-10T06:52:39.470Z,52.14
2022-08-10T06:53:53.913Z,52.06
2022-08-10T06:54:39.404Z,52.26
2022-08-10T06:55:49.722Z,51.37
2022-08-10T06:56:46.867Z,50.76
2022-08-10T06:57:39.306Z,50.54
2022-08-10T06:58:39.296Z,50.49
2022-08-10T06:59:39.244Z,50.39
2022-08-10T07:00:39.281Z,48.69
2022-08-10T07:01:39.178Z,49.63
2022-08-10T07:02:39.148Z,49.14
2022-08-10T07:03:39.118Z,48.85
2022-08-10T07:04:39.095Z,47.96
2022-08-10T07:05:39.054Z,48.63
2022-08-10T07:06:39.023Z,47.62
2022-08-10T07:07:38.985Z,47.40
2022-08-10T07:08:38.955Z,47.40
2022-08-10T07:09:38.932Z,47.77
2022-08-10T07:10:45.652Z,47.36
2022-08-10T07:11:38.860Z,46.37
2022-08-10T07:12:38.827Z,46.98
2022-08-10T07:14:16.287Z,47.20
2022-08-10T07:14:38.771Z,48.41
2022-08-10T07:15:59.819Z,47.40
2022-08-10T07:16:38.706Z,48.30
2022-08-10T07:17:39.670Z,49.63
2022-08-10T07:18:38.641Z,50.44
2022-08-10T07:19:50.400Z,48.96
2022-08-10T07:20:38.590Z,50.39
2022-08-10T07:21:38.564Z,48.90
2022-08-10T07:23:01.204Z,45.03
2022-08-10T07:23:57.603Z,46.77
2022-08-10T07:24:38.450Z,47.82
2022-08-10T07:25:38.417Z,46.06
2022-08-10T07:26:38.400Z,44.28
2022-08-10T07:27:39.249Z,46.37
2022-08-10T07:28:38.327Z,48.33
2022-08-10T07:29:53.211Z,45.86
2022-08-10T07:30:38.265Z,45.67
2022-08-10T07:31:57.071Z,42.54
2022-08-10T07:32:38.213Z,42.85
2022-08-10T07:33:38.170Z,44.01
2022-08-10T07:34:38.141Z,42.27
2022-08-10T07:35:42.236Z,42.64
2022-08-10T07:36:38.078Z,44.40
2022-08-10T07:37:38.044Z,43.23
2022-08-10T07:38:38.027Z,44.57
2022-08-10T07:40:02.429Z,43.67
2022-08-10T07:40:37.999Z,40.94
2022-08-10T07:41:37.921Z,41.62
2022-08-10T07:42:42.088Z,45.06
2022-08-10T07:43:37.884Z,43.91
2022-08-10T07:44:37.833Z,45.76
2022-08-10T07:45:37.802Z,42.71
2022-08-10T07:46:37.771Z,43.67
2022-08-10T07:47:46.356Z,42.19
2022-08-10T07:48:37.725Z,42.68
2022-08-10T07:49:37.677Z,41.75
2022-08-10T07:50:37.655Z,41.17
2022-08-10T07:51:37.619Z,39.72
2022-08-10T07:52:37.777Z,40.74
2022-08-10T07:53:37.561Z,41.49
2022-08-10T07:54:37.544Z,42.72
2022-08-10T07:56:04.548Z,43.99
2022-08-10T07:56:48.879Z,43.76
2022-08-10T07:57:40.244Z,42.46
2022-08-10T07:58:37.413Z,41.86
2022-08-10T07:59:37.391Z,45.47
2022-08-10T08:00:37.366Z,40.95
2022-08-10T08:01:37.389Z,41.05
2022-08-10T08:02:37.379Z,42.25
2022-08-10T08:03:37.261Z,41.96
2022-08-10T08:04:37.252Z,41.93
2022-08-10T08:06:02.947Z,41.05
2022-08-10T08:06:37.180Z,42.15
2022-08-10T08:07:37.154Z,43.05
2022-08-10T08:08:37.116Z,42.21
2022-08-10T08:09:37.102Z,42.91
2022-08-10T08:10:37.056Z,43.48
2022-08-10T08:11:37.028Z,43.77
2022-08-10T08:12:37.327Z,43.98
2022-08-10T08:13:36.981Z,42.21
2022-08-10T08:14:36.939Z,42.23
2022-08-10T08:16:18.596Z,43.77
2022-08-10T08:16:36.887Z,42.27
2022-08-10T08:17:36.854Z,43.75
2022-08-10T08:18:37.193Z,39.92
2022-08-10T08:19:40.949Z,41.11
2022-08-10T08:20:36.765Z,41.80
2022-08-10T08:24:04.585Z,41.89
2022-08-10T08:24:04.729Z,40.74
2022-08-10T08:24:07.807Z,40.88
2022-08-10T08:24:37.165Z,39.12
2022-08-10T08:25:36.620Z,39.92
2022-08-10T08:26:36.596Z,41.52
2022-08-10T08:27:38.340Z,40.74
2022-08-10T08:28:36.618Z,39.61
2022-08-10T08:29:37.345Z,41.44
2022-08-10T08:30:36.504Z,41.77
2022-08-10T08:31:36.458Z,40.58
2022-08-10T08:32:36.724Z,38.01
2022-08-10T08:33:41.927Z,37.99
2022-08-10T08:34:37.631Z,40.06
2022-08-10T08:35:38.066Z,37.54
2022-08-10T08:36:37.333Z,38.53
2022-08-10T08:38:31.389Z,39.70
2022-08-10T08:38:36.792Z,39.20
2022-08-10T08:39:37.077Z,41.58
2022-08-10T08:40:36.243Z,42.35
2022-08-10T08:41:36.200Z,39.76
2022-08-10T08:42:36.302Z,39.65
2022-08-10T08:43:36.113Z,38.82
2022-08-10T08:44:36.095Z,39.22
2022-08-10T08:45:36.060Z,38.77
2022-08-10T08:46:36.040Z,40.37
2022-08-10T08:48:04.504Z,40.86
2022-08-10T08:48:35.978Z,41.31
2022-08-10T08:50:08.837Z,39.08
2022-08-10T08:50:35.922Z,40.99
2022-08-10T08:52:07.330Z,40.43
2022-08-10T08:52:36.185Z,40.76
2022-08-10T08:54:01.206Z,38.71
2022-08-10T08:54:35.852Z,39.18
2022-08-10T08:56:03.497Z,39.04
2022-08-10T08:56:35.802Z,40.47
2022-08-10T08:57:50.464Z,37.33
2022-08-10T08:58:35.798Z,36.41
2022-08-10T08:59:35.690Z,38.10
2022-08-10T09:00:35.651Z,38.24
2022-08-10T09:01:38.050Z,38.26
2022-08-10T09:02:35.780Z,36.88
2022-08-10T09:03:35.569Z,38.24
2022-08-10T09:04:35.543Z,41.17
2022-08-10T09:06:00.214Z,38.79
2022-08-10T09:06:35.497Z,38.85
2022-08-10T09:07:59.582Z,38.24
2022-08-10T09:08:35.436Z,37.18
2022-08-10T09:09:35.405Z,36.79
2022-08-10T09:10:37.570Z,36.80
2022-08-10T09:11:35.362Z,37.83
2022-08-10T09:12:35.610Z,40.55
2022-08-10T09:13:35.301Z,37.71
2022-08-10T09:14:35.278Z,36.74
2022-08-10T09:15:39.981Z,36.78
2022-08-10T09:16:35.239Z,38.14
2022-08-10T09:17:35.197Z,38.71
2022-08-10T09:18:35.173Z,37.05
2022-08-10T09:19:36.877Z,36.94
2022-08-10T09:20:35.121Z,38.12
2022-08-10T09:21:35.095Z,37.33
2022-08-10T09:22:35.184Z,35.75
2022-08-10T09:24:01.665Z,36.72
2022-08-10T09:24:35.017Z,36.55
2022-08-10T09:25:34.988Z,37.48
2022-08-10T09:26:34.965Z,34.97
2022-08-10T09:27:35.438Z,35.46
2022-08-10T09:28:34.921Z,36.18
2022-08-10T09:29:34.885Z,36.52
2022-08-10T09:30:38.448Z,39.14
2022-08-10T09:31:38.648Z,36.37
2022-08-10T09:36:14.870Z,35.61
2022-08-10T09:36:19.794Z,37.95
2022-08-10T09:36:25.994Z,35.08
2022-08-10T09:36:29.225Z,37.13
2022-08-10T09:36:35.422Z,33.95
2022-08-10T09:37:39.990Z,34.36
2022-08-10T09:38:34.652Z,37.05
2022-08-10T09:40:12.685Z,35.00
2022-08-10T09:41:00.074Z,34.42
2022-08-10T09:41:34.612Z,34.63
2022-08-10T09:42:34.748Z,34.48
2022-08-10T09:43:34.523Z,35.50
2022-08-10T09:44:34.496Z,36.38
2022-08-10T09:45:34.484Z,37.67
2022-08-10T09:46:34.450Z,38.90
2022-08-10T09:47:58.602Z,37.71
2022-08-10T09:48:34.391Z,38.28
2022-08-10T09:49:53.760Z,37.62
2022-08-10T09:51:16.027Z,37.40
2022-08-10T09:51:45.326Z,34.86
2022-08-10T09:52:34.288Z,35.17
2022-08-10T09:53:34.489Z,35.46
2022-08-10T09:54:34.236Z,34.58
2022-08-10T09:56:18.015Z,35.45
2022-08-10T09:56:34.190Z,36.78
2022-08-10T09:57:44.906Z,35.57
2022-08-10T09:58:34.126Z,36.14
2022-08-10T10:00:00.077Z,34.68
2022-08-10T10:00:34.073Z,35.18
2022-08-10T10:02:03.177Z,34.91
2022-08-10T10:02:34.020Z,36.00
2022-08-10T10:03:34.026Z,35.78
2022-08-10T10:04:33.969Z,36.06
2022-08-10T10:05:34.062Z,35.39
2022-08-10T10:06:33.915Z,35.88
2022-08-10T10:07:33.917Z,35.61
2022-08-10T10:08:33.865Z,35.53
2022-08-10T10:09:33.837Z,37.71
2022-08-10T10:10:33.811Z,37.34
2022-08-10T10:11:33.802Z,37.14
2022-08-10T10:12:33.758Z,36.63
2022-08-10T10:14:01.791Z,36.36
2022-08-10T10:14:33.706Z,36.75
2022-08-10T10:15:33.680Z,36.94
2022-08-10T10:16:33.656Z,37.11
2022-08-10T10:17:33.630Z,36.43
2022-08-10T10:18:33.600Z,37.34
2022-08-10T10:19:36.171Z,37.52
2022-08-10T10:20:33.548Z,36.93
2022-08-10T10:21:53.948Z,37.24
2022-08-10T10:22:33.495Z,37.22
2022-08-10T10:23:33.479Z,37.50
2022-08-10T10:24:33.440Z,36.23
2022-08-10T10:25:51.245Z,36.39
2022-08-10T10:26:33.388Z,37.50
2022-08-10T10:27:33.414Z,38.18
2022-08-10T10:29:06.932Z,37.60
2022-08-10T10:29:57.264Z,36.24
2022-08-10T10:30:33.296Z,36.73
2022-08-10T10:31:33.270Z,35.36
2022-08-10T10:32:36.870Z,35.56
2022-08-10T10:33:33.205Z,37.50
2022-08-10T10:34:33.182Z,36.04
2022-08-10T10:35:33.150Z,37.48
2022-08-10T10:36:33.162Z,36.75
2022-08-10T10:38:01.276Z,36.40
2022-08-10T10:38:33.073Z,37.65
2022-08-10T10:39:33.082Z,36.67
2022-08-10T10:40:33.020Z,37.34
2022-08-10T10:41:55.843Z,36.93
2022-08-10T10:42:46.109Z,36.73
2022-08-10T10:43:32.942Z,36.72
2022-08-10T10:44:32.914Z,36.91
2022-08-10T10:45:32.888Z,36.70
2022-08-10T10:46:32.864Z,36.60
2022-08-10T10:47:32.943Z,35.72
2022-08-10T10:48:32.810Z,37.11
2022-08-10T10:49:32.784Z,36.43
2022-08-10T10:50:32.759Z,35.74
2022-08-10T10:51:32.735Z,36.26
2022-08-10T10:52:32.720Z,35.71
2022-08-10T10:53:32.685Z,37.79
2022-08-10T10:54:32.655Z,38.94
2022-08-10T10:55:32.629Z,37.06
2022-08-10T10:56:32.605Z,35.87
2022-08-10T10:57:59.026Z,37.26
2022-08-10T10:58:32.572Z,38.12
2022-08-10T10:59:55.693Z,36.54
2022-08-10T11:00:32.505Z,37.02
2022-08-10T11:01:32.521Z,37.63
2022-08-10T11:02:32.459Z,37.32
2022-08-10T11:03:32.426Z,37.41
2022-08-10T11:04:32.397Z,36.04
2022-08-10T11:05:32.369Z,37.11
2022-08-10T11:06:40.112Z,36.05
2022-08-10T11:07:33.900Z,36.08
2022-08-10T11:08:32.301Z,39.06
2022-08-10T11:10:05.077Z,37.39
2022-08-10T11:10:34.650Z,37.39
2022-08-10T11:12:01.737Z,37.21
2022-08-10T11:12:32.258Z,39.37
2022-08-10T11:14:26.769Z,38.86
2022-08-10T11:14:32.156Z,38.34
2022-08-10T11:15:32.107Z,36.96
2022-08-10T11:16:32.076Z,38.92
2022-08-10T11:17:32.054Z,37.73
2022-08-10T11:18:32.023Z,38.12
2022-08-10T11:20:01.842Z,37.32
2022-08-10T11:20:31.981Z,38.28
2022-08-10T11:21:31.942Z,36.52
2022-08-10T11:22:36.750Z,36.24
2022-08-10T11:23:31.890Z,36.07
2022-08-10T11:24:47.665Z,37.93
2022-08-10T11:25:31.845Z,36.87
2022-08-10T11:26:31.817Z,36.88
2022-08-10T11:27:31.907Z,38.34
2022-08-10T11:28:34.116Z,36.49
2022-08-10T11:29:31.729Z,38.26
2022-08-10T11:30:31.716Z,37.79
2022-08-10T11:31:31.675Z,37.39
2022-08-10T11:32:31.646Z,37.69
2022-08-10T11:33:32.907Z,37.23
2022-08-10T11:34:48.422Z,38.51
2022-08-10T11:35:34.826Z,37.25
2022-08-10T11:36:31.551Z,40.17
2022-08-10T11:38:34.264Z,39.07
2022-08-10T11:38:42.877Z,38.28
2022-08-10T11:39:31.512Z,36.90
2022-08-10T11:40:31.430Z,37.51
2022-08-10T11:42:09.551Z,37.21
2022-08-10T11:42:35.778Z,39.96
2022-08-10T11:43:31.355Z,39.35
2022-08-10T11:44:31.323Z,39.70
2022-08-10T11:45:31.298Z,38.12
2022-08-10T11:46:31.270Z,35.99
2022-08-10T11:47:31.258Z,38.26
2022-08-10T11:48:53.356Z,37.71
2022-08-10T11:49:31.193Z,37.51
2022-08-10T11:50:31.165Z,37.92
2022-08-10T11:51:31.141Z,39.22
2022-08-10T11:52:31.110Z,39.56
2022-08-10T11:53:39.115Z,39.17
2022-08-10T11:54:31.079Z,39.66
2022-08-10T11:55:31.032Z,38.76
2022-08-10T11:56:31.046Z,38.18
2022-08-10T11:57:53.788Z,38.39
2022-08-10T11:58:30.951Z,39.06
2022-08-10T11:59:30.946Z,38.55
2022-08-10T12:00:32.693Z,38.45
2022-08-10T12:01:30.874Z,37.37
2022-08-10T12:02:30.929Z,37.16
2022-08-10T12:03:34.565Z,37.26
2022-08-10T12:04:30.794Z,37.06
2022-08-10T12:05:51.936Z,38.22
2022-08-10T12:06:54.253Z,36.46
2022-08-10T12:10:05.835Z,36.67
2022-08-10T12:10:06.685Z,36.47
2022-08-10T12:10:09.981Z,37.47
2022-08-10T12:10:30.651Z,37.98
2022-08-10T12:11:30.613Z,38.20
2022-08-10T12:12:30.586Z,38.51
2022-08-10T12:13:30.561Z,38.80
2022-08-10T12:14:30.548Z,38.41
2022-08-10T12:15:30.521Z,38.70
2022-08-10T12:16:30.538Z,39.00
2022-08-10T12:17:30.457Z,38.31
2022-08-10T12:18:30.429Z,38.51
2022-08-10T12:19:30.404Z,38.51
2022-08-10T12:20:30.378Z,37.92
2022-08-10T12:21:30.363Z,38.39
2022-08-10T12:22:30.331Z,37.02
2022-08-10T12:23:30.353Z,38.49
2022-08-10T12:24:30.271Z,38.68
2022-08-10T12:25:56.110Z,37.43
2022-08-10T12:26:30.217Z,38.12
2022-08-10T12:27:30.194Z,40.19
2022-08-10T12:28:50.671Z,39.69
2022-08-10T12:29:30.145Z,38.02
2022-08-10T12:30:30.128Z,38.12
2022-08-10T12:31:30.088Z,38.59
2022-08-10T12:32:30.061Z,38.20
2022-08-10T12:33:30.059Z,38.68
2022-08-10T12:34:30.009Z,39.39
2022-08-10T12:35:29.984Z,38.68
2022-08-10T12:36:29.972Z,38.21
2022-08-10T12:37:29.932Z,39.17
2022-08-10T12:38:29.905Z,39.17
2022-08-10T12:39:29.969Z,39.37
2022-08-10T12:40:35.728Z,38.49
2022-08-10T12:41:43.504Z,39.29
2022-08-10T12:43:13.083Z,38.59
2022-08-10T12:44:04.324Z,39.47
2022-08-10T12:44:40.974Z,38.88
2022-08-10T12:45:29.724Z,39.17
2022-08-10T12:46:29.701Z,39.17
2022-08-10T12:47:29.676Z,38.39
2022-08-10T12:48:31.468Z,38.59
2022-08-10T12:49:29.628Z,38.41
2022-08-10T12:50:33.758Z,38.82
2022-08-10T12:51:29.571Z,41.86
2022-08-10T12:52:29.548Z,38.41